Time;durP1;ratioP1;P1;durP2;ratioP2;P2;SDS_P1;SDS_P2;PMS_P1;PMS_P2;Temp;Humidity;BMP_temperature;BMP_pressure;BME280_temperature;BME280_humidity;BME280_pressure;Samples;Min_cycle;Max_cycle;Signal;HPM_P1;HPM_P2
2021/04/08 00:02:39;;;;;;;5.87;3.70;;;3.00;99.90;;;1.14;100.00;100197.41;5011068;28;87254;-58
2021/04/08 00:05:51;;;;;;;6.83;3.63;;;3.00;99.90;;;1.11;100.00;100197.63;5022712;28;84329;-57
2021/04/08 00:09:02;;;;;;;7.03;4.30;;;3.00;99.90;;;1.11;100.00;100199.41;5018880;28;81598;-59
2021/04/08 00:12:14;;;;;;;7.13;3.63;;;3.00;99.90;;;1.08;100.00;100203.94;5009883;28;74197;-60
2021/04/08 00:15:57;;;;;;;8.47;4.63;;;3.10;99.90;;;1.10;100.00;100203.00;5017056;28;73109;-57
2021/04/08 00:19:09;;;;;;;10.13;4.70;;;3.10;99.90;;;1.10;100.00;100214.38;4949620;28;60430;-59
2021/04/08 00:22:22;;;;;;;8.57;5.03;;;3.10;99.90;;;1.16;100.00;100210.50;4995580;28;67809;-57
2021/04/08 00:25:36;;;;;;;7.70;5.03;;;3.10;99.90;;;1.17;100.00;100223.56;5012331;28;72306;-58
2021/04/08 00:28:47;;;;;;;8.73;4.87;;;3.10;99.90;;;1.13;100.00;100218.59;5015924;28;71421;-58
2021/04/08 00:32:10;;;;;;;7.93;5.03;;;3.10;99.90;;;1.08;100.00;100226.81;5015496;28;64988;-57
2021/04/08 00:43:49;;;;;;;9.30;5.00;;;3.00;99.90;;;1.05;100.00;100243.66;5028340;28;70724;-58
2021/04/08 00:47:09;;;;;;;8.70;4.70;;;2.90;99.90;;;1.03;100.00;100242.91;5039133;28;61415;-59
2021/04/08 00:58:25;;;;;;;7.03;4.70;;;2.90;99.90;;;1.05;100.00;100259.47;4946319;28;61508;-57
2021/04/08 01:01:49;;;;;;;10.87;4.73;;;2.90;99.90;;;1.05;100.00;100261.25;4977003;28;61987;-59
2021/04/08 01:05:00;;;;;;;7.47;4.10;;;2.90;99.90;;;1.00;100.00;100260.69;5012280;28;67195;-58
2021/04/08 01:08:12;;;;;;;9.63;4.60;;;2.90;99.90;;;0.94;100.00;100264.59;5011816;28;65197;-57
2021/04/08 01:11:23;;;;;;;13.57;5.40;;;2.80;99.90;;;0.95;100.00;100270.69;5011949;28;65545;-58
2021/04/08 01:14:35;;;;;;;14.60;5.77;;;2.80;99.90;;;0.95;100.00;100286.50;5011297;28;71483;-57
2021/04/08 01:17:55;;;;;;;11.33;5.50;;;2.80;99.90;;;0.91;100.00;100272.66;5030841;28;68091;-58
2021/04/08 01:21:34;;;;;;;8.00;4.40;;;2.80;99.90;;;0.84;100.00;100281.06;5028245;28;73617;-59
2021/04/08 01:25:12;;;;;;;8.10;4.23;;;2.70;99.90;;;0.83;100.00;100280.22;5030898;28;75086;-58
2021/04/08 01:28:35;;;;;;;9.13;4.30;;;2.60;99.90;;;0.88;100.00;100290.44;4993184;28;62698;-58
2021/04/08 01:32:02;;;;;;;8.00;4.10;;;2.60;99.90;;;0.93;100.00;100301.56;5015667;28;71450;-58
2021/04/08 01:35:17;;;;;;;6.83;3.67;;;2.60;99.90;;;0.97;100.00;100295.16;5026985;28;59452;-59
2021/04/08 01:38:36;;;;;;;9.70;3.90;;;2.60;99.90;;;1.02;100.00;100312.34;5031917;28;62377;-59
2021/04/08 01:41:53;;;;;;;11.13;4.17;;;2.60;99.90;;;1.00;100.00;100308.97;5036434;28;60603;-59
2021/04/08 01:45:05;;;;;;;7.33;3.87;;;2.70;99.90;;;1.05;100.00;100306.06;5033283;28;63887;-59
2021/04/08 01:48:18;;;;;;;9.30;3.80;;;2.70;99.90;;;1.04;100.00;100307.84;5007326;28;57006;-59
2021/04/08 01:51:33;;;;;;;9.03;3.83;;;2.80;99.90;;;1.05;100.00;100306.91;5018602;28;60540;-58
2021/04/08 01:54:46;;;;;;;9.80;3.93;;;2.80;99.90;;;1.07;100.00;100326.09;5029775;28;60981;-58
2021/04/08 01:58:00;;;;;;;4.33;2.70;;;2.80;99.90;;;1.11;100.00;100297.78;5034332;28;63930;-58
2021/04/08 02:01:12;;;;;;;7.30;2.70;;;2.80;99.90;;;1.15;100.00;100311.56;5035339;28;69690;-58
2021/04/08 02:04:26;;;;;;;7.03;2.57;;;2.90;99.90;;;1.08;100.00;100309.34;5036423;28;61274;-58
2021/04/08 02:07:39;;;;;;;10.03;2.90;;;2.90;99.90;;;0.97;100.00;100309.19;5030082;28;64797;-59
2021/04/08 02:10:51;;;;;;;9.77;3.00;;;2.80;99.90;;;0.91;100.00;100304.28;5033584;28;64900;-59
2021/04/08 02:14:05;;;;;;;11.13;3.77;;;2.70;99.90;;;0.83;100.00;100318.88;5029883;28;67401;-58
2021/04/08 02:17:18;;;;;;;10.50;3.27;;;2.60;99.90;;;0.77;100.00;100319.25;5019735;28;63070;-58
2021/04/08 02:20:33;;;;;;;9.67;3.87;;;2.50;99.90;;;0.75;100.00;100319.34;5013153;28;59649;-58
2021/04/08 02:23:49;;;;;;;8.73;3.53;;;2.40;99.90;;;0.75;100.00;100324.63;5024160;28;80467;-58
2021/04/08 02:27:01;;;;;;;10.93;3.30;;;2.40;99.90;;;0.63;100.00;100328.00;5006981;28;76398;-59
2021/04/08 02:30:13;;;;;;;9.17;3.60;;;2.50;99.90;;;0.61;100.00;100338.66;5022907;28;66088;-59
2021/04/08 02:33:24;;;;;;;11.43;3.83;;;2.50;99.90;;;0.61;100.00;100340.44;5040791;28;52690;-59
2021/04/08 02:44:22;;;;;;;9.07;4.03;;;2.40;99.90;;;0.52;100.00;100365.53;4883127;28;55619;-58
2021/04/08 03:23:02;;;;;;;9.37;3.90;;;2.40;99.90;;;0.63;100.00;100410.47;4856437;28;66830;-59
2021/04/08 03:30:06;;;;;;;8.27;3.47;;;2.40;99.90;;;0.68;100.00;100420.75;4865908;28;52736;-57
2021/04/08 03:33:17;;;;;;;9.97;3.80;;;2.50;99.90;;;0.68;100.00;100426.00;4886686;28;55510;-57
2021/04/08 03:36:30;;;;;;;7.53;3.53;;;2.50;99.90;;;0.68;100.00;100420.75;4913871;28;58793;-58
2021/04/08 03:39:41;;;;;;;8.63;3.37;;;2.50;99.90;;;0.68;100.00;100431.28;4974745;28;52895;-57
2021/04/08 03:43:18;;;;;;;11.07;3.70;;;2.50;99.90;;;0.66;100.00;100423.47;4993148;28;61154;-59
2021/04/08 03:46:42;;;;;;;6.63;3.37;;;2.60;99.90;;;0.65;100.00;100426.19;4936371;28;55376;-59
2021/04/08 03:49:54;;;;;;;12.17;3.20;;;2.50;99.90;;;0.66;100.00;100436.63;4956032;28;54636;-59
2021/04/08 04:01:31;;;;;;;7.57;3.57;;;2.50;99.90;;;0.68;100.00;100450.56;4811896;29;90110;-59
2021/04/08 04:08:57;;;;;;;9.77;3.20;;;2.50;99.90;;;0.75;100.00;100450.19;4825518;29;69493;-59
2021/04/08 04:25:01;;;;;;;7.70;4.13;;;2.60;99.90;;;0.14;100.00;100480.09;4757564;29;62063;-60
2021/04/08 04:32:26;;;;;;;12.23;4.73;;;2.30;99.90;;;0.29;100.00;100481.84;4859042;28;66289;-61
2021/04/08 04:39:28;;;;;;;9.87;4.50;;;2.20;99.90;;;0.38;100.00;100486.59;4929700;28;58398;-59
2021/04/08 04:42:41;;;;;;;9.80;4.80;;;2.20;99.90;;;0.47;100.00;100490.50;5000859;28;67181;-60
2021/04/08 04:49:30;;;;;;;10.80;5.13;;;2.20;99.90;;;0.39;100.00;100495.31;5011679;28;77694;-61
2021/04/08 04:52:47;;;;;;;6.90;4.30;;;2.20;99.90;;;0.39;100.00;100495.31;5008175;28;78551;-61
2021/04/08 04:56:10;;;;;;;6.67;3.93;;;2.20;99.90;;;0.44;100.00;100501.19;5008992;28;87572;-60
2021/04/08 04:59:23;;;;;;;10.97;4.87;;;2.20;99.90;;;0.44;100.00;100509.94;5004265;28;77103;-61
2021/04/08 05:02:34;;;;;;;6.37;4.03;;;2.20;99.90;;;0.41;100.00;100510.09;5000914;28;82819;-61
2021/04/08 05:05:45;;;;;;;9.43;4.57;;;2.20;99.90;;;0.43;100.00;100510.03;4981699;28;89927;-61
2021/04/08 05:08:56;;;;;;;9.57;5.00;;;2.20;99.90;;;0.44;100.00;100516.97;4973306;28;81698;-61
2021/04/08 05:12:07;;;;;;;12.37;4.50;;;2.20;99.90;;;0.49;100.00;100521.06;4965821;28;96220;-60
2021/04/08 05:15:32;;;;;;;10.63;3.67;;;2.30;99.90;;;0.49;100.00;100528.97;4970541;28;86484;-60
2021/04/08 05:18:43;;;;;;;8.57;4.20;;;2.30;99.90;;;0.51;100.00;100536.75;5019442;28;77051;-62
2021/04/08 05:21:54;;;;;;;10.63;4.43;;;2.30;99.90;;;0.55;100.00;100546.16;5020750;28;75749;-61
2021/04/08 05:25:06;;;;;;;10.23;4.10;;;2.30;99.90;;;0.58;100.00;100551.28;5001403;28;73329;-61
2021/04/08 05:28:17;;;;;;;9.53;4.73;;;2.30;99.90;;;0.63;100.00;100557.94;5012407;28;87530;-62
2021/04/08 05:31:31;;;;;;;12.27;4.47;;;2.30;99.90;;;0.65;100.00;100557.88;5004093;28;88282;-61
2021/04/08 05:34:42;;;;;;;8.93;4.03;;;2.40;99.90;;;0.66;100.00;100556.94;5010815;28;87568;-61
2021/04/08 05:37:53;;;;;;;9.93;4.70;;;2.40;99.90;;;0.69;100.00;100564.66;5003703;28;93542;-60
2021/04/08 05:41:04;;;;;;;10.20;5.07;;;2.50;99.90;;;0.69;100.00;100564.66;4994958;28;92952;-61
2021/04/08 05:44:16;;;;;;;11.17;5.03;;;2.50;99.90;;;0.74;100.00;100567.03;5008338;28;94148;-61
2021/04/08 05:47:28;;;;;;;11.03;4.23;;;2.50;99.90;;;0.80;100.00;100574.56;5007226;28;84911;-60
2021/04/08 05:50:39;;;;;;;9.63;3.83;;;2.50;99.90;;;0.82;100.00;100584.09;5015038;28;79403;-60
2021/04/08 05:54:09;;;;;;;9.80;3.13;;;2.50;99.90;;;0.83;100.00;100579.66;5012551;28;89118;-61
2021/04/08 05:57:20;;;;;;;10.37;3.67;;;2.50;99.90;;;0.83;100.00;100585.78;4985642;28;71865;-60
2021/04/08 06:00:32;;;;;;;10.53;3.60;;;2.50;99.90;;;0.93;100.00;100594.00;5018557;28;76789;-59
2021/04/08 06:03:56;;;;;;;9.17;3.70;;;2.50;99.90;;;1.00;100.00;100598.81;5018464;28;78834;-58
2021/04/08 06:07:08;;;;;;;8.47;3.67;;;2.60;99.90;;;0.98;100.00;100608.59;4997914;28;84357;-61
2021/04/08 06:10:19;;;;;;;9.07;3.77;;;2.70;99.90;;;1.10;100.00;100608.81;5023252;27;79011;-60
2021/04/08 06:13:36;;;;;;;10.97;3.37;;;2.70;99.90;;;1.08;100.00;100614.19;5026538;28;66855;-58
2021/04/08 06:16:48;;;;;;;8.13;3.10;;;2.80;99.90;;;1.11;100.00;100619.28;5026158;28;73585;-60
2021/04/08 06:20:00;;;;;;;10.10;3.80;;;2.90;99.90;;;1.14;100.00;100618.22;5029311;28;69719;-59
2021/04/08 06:26:43;;;;;;;8.93;4.13;;;3.00;99.90;;;1.23;100.00;100628.25;5031477;28;67071;-58
2021/04/08 06:33:23;;;;;;;7.53;3.47;;;3.10;99.90;;;1.35;100.00;100638.06;5006285;28;66477;-58
2021/04/08 06:36:35;;;;;;;7.83;3.43;;;3.20;99.90;;;1.40;100.00;100639.47;5022286;28;67681;-58
2021/04/08 06:39:53;;;;;;;9.73;3.57;;;3.30;99.90;;;1.47;100.00;100645.25;5018164;28;74704;-59
2021/04/08 06:43:04;;;;;;;9.83;4.30;;;3.40;99.90;;;1.45;100.00;100655.03;5029547;28;63228;-60
2021/04/08 06:46:23;;;;;;;11.10;4.73;;;3.40;99.90;;;1.48;100.00;100665.41;5022476;28;58778;-57
2021/04/08 06:49:41;;;;;;;10.77;4.23;;;3.40;99.90;;;1.48;100.00;100662.78;5025701;28;67606;-59
2021/04/08 06:52:55;;;;;;;11.90;4.03;;;3.40;99.90;;;1.45;100.00;100681.41;5027806;28;70839;-58
2021/04/08 06:56:08;;;;;;;9.60;4.47;;;3.40;99.90;;;1.50;100.00;100689.03;5027191;28;61826;-58
2021/04/08 06:59:20;;;;;;;12.83;4.77;;;3.50;99.90;;;1.50;100.00;100689.03;5028850;28;62798;-58
2021/04/08 07:02:33;;;;;;;8.40;4.17;;;3.40;99.90;;;1.52;100.00;100687.16;5027554;28;60044;-57
2021/04/08 07:05:45;;;;;;;8.77;3.47;;;3.50;99.90;;;1.54;100.00;100698.47;5030762;28;63198;-59
2021/04/08 07:08:57;;;;;;;9.97;4.27;;;3.50;99.90;;;1.57;100.00;100701.78;5028527;28;66614;-56
2021/04/08 07:12:08;;;;;;;6.70;2.67;;;3.50;99.90;;;1.60;100.00;100704.25;5017528;28;67403;-58
2021/04/08 07:15:21;;;;;;;8.47;3.07;;;3.50;99.90;;;1.74;100.00;100704.25;5018383;28;78837;-59
2021/04/08 07:18:32;;;;;;;9.93;3.47;;;3.60;99.90;;;1.87;100.00;100701.72;5028736;28;55244;-56
2021/04/08 07:25:31;;;;;;;9.33;3.30;;;3.80;99.90;;;1.86;100.00;100709.72;5032306;28;56451;-56
2021/04/08 07:29:02;;;;;;;7.63;3.17;;;3.80;99.90;;;1.87;100.00;100708.78;5035356;28;60355;-57
2021/04/08 07:32:16;;;;;;;10.80;3.67;;;3.90;99.90;;;1.95;100.00;100717.94;5026005;28;58417;-59
2021/04/08 07:35:30;;;;;;;9.63;3.23;;;3.90;99.90;;;2.01;100.00;100717.56;5028023;28;58426;-59
2021/04/08 07:38:47;;;;;;;10.77;3.20;;;4.00;99.90;;;2.18;100.00;100735.03;5034460;28;61132;-58
2021/04/08 07:42:18;;;;;;;9.77;3.47;;;4.10;99.90;;;2.13;100.00;100737.09;5032121;28;68316;-59
2021/04/08 07:45:41;;;;;;;8.07;2.67;;;4.20;99.90;;;2.17;100.00;100725.41;5036013;28;57613;-59
2021/04/08 07:48:58;;;;;;;12.07;3.83;;;4.20;99.90;;;2.26;100.00;100750.38;5035939;28;53716;-58
2021/04/08 07:52:23;;;;;;;4.53;2.47;;;4.30;99.90;;;2.20;100.00;100756.91;5025640;28;64785;-59
2021/04/08 07:55:53;;;;;;;6.47;2.57;;;4.30;99.90;;;2.27;100.00;100758.22;5036921;28;64687;-59
2021/04/08 07:59:07;;;;;;;5.43;2.33;;;4.40;99.90;;;2.37;100.00;100766.41;5037973;28;56158;-60
2021/04/08 08:02:27;;;;;;;11.13;3.07;;;4.40;99.90;;;2.36;100.00;100773.47;5033616;28;50767;-59
2021/04/08 08:06:01;;;;;;;11.17;2.90;;;4.50;99.90;;;2.45;100.00;100777.38;5033135;28;55367;-59
2021/04/08 08:09:43;;;;;;;9.17;2.73;;;4.60;99.90;;;2.45;100.00;100772.09;4932977;28;56143;-59
2021/04/08 08:12:58;;;;;;;10.00;3.40;;;4.70;99.90;;;2.68;100.00;100782.06;4941800;28;50583;-59
2021/04/08 08:16:12;;;;;;;8.40;2.80;;;4.70;99.90;;;2.61;100.00;100777.25;5028393;28;55549;-58
2021/04/08 08:19:27;;;;;;;9.70;3.00;;;4.80;99.90;;;2.57;100.00;100796.91;5026709;28;59027;-58
2021/04/08 08:23:01;;;;;;;15.37;3.17;;;4.80;99.90;;;2.48;100.00;100791.22;5017487;28;55253;-57
2021/04/08 08:30:15;;;;;;;7.33;2.60;;;4.90;99.90;;;2.53;100.00;100804.16;4954823;28;68499;-57
2021/04/08 08:33:48;;;;;;;7.90;2.60;;;4.80;99.30;;;2.62;100.00;100806.22;5026631;28;70225;-59
2021/04/08 08:37:01;;;;;;;7.50;2.60;;;4.80;99.90;;;2.54;100.00;100813.78;4919079;28;73180;-57
2021/04/08 08:40:14;;;;;;;7.60;2.60;;;4.80;99.20;;;2.44;100.00;100807.38;5026618;28;62358;-57
2021/04/08 08:43:26;;;;;;;9.13;3.00;;;4.80;98.70;;;2.45;100.00;100827.56;5034901;28;69140;-59
2021/04/08 08:47:03;;;;;;;13.10;3.23;;;4.80;99.60;;;2.42;100.00;100841.78;5016245;28;67238;-59
2021/04/08 08:50:19;;;;;;;7.03;2.80;;;4.70;99.90;;;2.46;100.00;100830.09;5012516;28;53850;-57
2021/04/08 08:57:15;;;;;;;8.17;2.87;;;4.80;99.00;;;3.18;100.00;100837.03;5039965;28;54856;-58
2021/04/08 09:00:28;;;;;;;9.67;2.67;;;4.90;98.90;;;3.33;100.00;100837.00;5028567;28;55512;-58
2021/04/08 09:03:39;;;;;;;8.10;3.23;;;5.30;97.30;;;3.49;100.00;100825.31;5036705;28;64828;-58
2021/04/08 09:06:52;;;;;;;9.77;3.10;;;5.60;96.70;;;4.13;100.00;100828.97;5038685;28;54506;-58
2021/04/08 09:10:05;;;;;;;6.43;2.43;;;6.00;95.40;;;4.75;100.00;100818.50;5036771;28;57003;-58
2021/04/08 09:13:17;;;;;;;11.67;3.20;;;6.50;94.50;;;5.27;100.00;100820.94;5040306;28;49729;-59
2021/04/08 09:16:32;;;;;;;7.13;2.70;;;7.10;93.00;;;4.47;100.00;100829.31;5038950;28;43254;-58
2021/04/08 09:19:52;;;;;;;5.70;2.47;;;7.60;88.40;;;3.96;100.00;100832.75;5043989;28;51202;-58
2021/04/08 09:23:24;;;;;;;8.83;2.13;;;7.80;81.80;;;4.32;100.00;100849.78;5038527;28;46967;-59
2021/04/08 09:26:40;;;;;;;5.97;2.03;;;7.90;81.30;;;3.90;100.00;100830.53;5042055;28;47032;-59
2021/04/08 09:30:11;;;;;;;5.53;2.10;;;7.80;74.30;;;4.52;100.00;100833.34;5040803;28;45785;-58
2021/04/08 09:33:22;;;;;;;4.17;2.00;;;7.80;76.00;;;4.43;100.00;100846.41;5042371;28;54278;-56
2021/04/08 09:36:59;;;;;;;6.23;2.37;;;7.90;75.00;;;4.15;100.00;100853.56;5036313;28;50568;-59
2021/04/08 09:40:12;;;;;;;6.07;2.30;;;7.90;73.70;;;4.01;100.00;100851.00;5038569;28;51645;-59
2021/04/08 09:43:26;;;;;;;5.17;2.47;;;7.70;75.90;;;3.88;100.00;100858.91;5042846;27;50893;-59
2021/04/08 09:46:59;;;;;;;8.93;2.20;;;7.60;76.40;;;3.85;100.00;100867.03;5045674;28;54223;-59
2021/04/08 09:50:29;;;;;;;7.20;2.47;;;7.40;73.50;;;4.19;100.00;100860.38;5043312;28;49463;-57
2021/04/08 09:54:01;;;;;;;5.87;1.93;;;7.20;74.70;;;4.70;100.00;100853.25;5038092;28;45221;-58
2021/04/08 10:00:50;;;;;;;4.47;2.47;;;7.70;70.40;;;4.86;100.00;100855.69;5034429;28;45167;-57
2021/04/08 10:04:29;;;;;;;7.60;1.80;;;7.70;72.40;;;4.19;100.00;100870.09;5036361;28;54681;-59
2021/04/08 10:07:40;;;;;;;5.10;2.10;;;7.80;70.80;;;3.95;100.00;100872.59;5044374;28;45286;-57
2021/04/08 10:11:07;;;;;;;4.20;1.70;;;7.60;70.50;;;3.96;100.00;100885.72;5017215;28;44696;-58
2021/04/08 10:14:41;;;;;;;8.40;2.33;;;7.30;71.90;;;4.30;100.00;100876.38;5020106;28;46495;-57
2021/04/08 10:18:06;;;;;;;5.53;2.57;;;7.20;73.50;;;5.07;100.00;100872.75;5023567;28;48927;-59
2021/04/08 10:24:54;;;;;;;6.13;2.33;;;8.00;75.50;;;5.58;100.00;100874.41;5021339;28;46134;-59
2021/04/08 10:28:11;;;;;;;15.97;5.07;;;8.50;72.60;;;4.84;100.00;100868.22;5030569;28;47531;-59
2021/04/08 10:31:30;;;;;;;6.20;3.10;;;8.60;68.00;;;4.66;100.00;100880.13;5039896;28;59031;-59
2021/04/08 10:34:50;;;;;;;4.50;2.57;;;8.60;69.10;;;4.35;100.00;100884.00;5031094;28;48474;-59
2021/04/08 10:38:07;;;;;;;6.97;2.70;;;8.40;65.10;;;4.38;100.00;100875.84;5020590;28;52715;-59
2021/04/08 10:41:19;;;;;;;5.03;2.30;;;8.10;65.50;;;4.41;100.00;100896.84;5021654;28;52259;-59
2021/04/08 10:44:51;;;;;;;5.80;2.27;;;7.90;68.20;;;4.90;100.00;100896.97;5041587;28;43280;-60
2021/04/08 10:48:04;;;;;;;5.40;1.77;;;7.80;71.00;;;4.97;100.00;100892.06;5020295;28;49678;-60
2021/04/08 10:51:21;;;;;;;4.17;1.70;;;7.90;71.10;;;4.84;100.00;100884.13;5038044;28;50724;-58
2021/04/08 10:54:34;;;;;;;6.00;1.80;;;8.00;68.70;;;4.65;100.00;100881.91;5035495;28;61813;-59
2021/04/08 11:01:19;;;;;;;5.23;1.60;;;8.00;65.70;;;4.59;100.00;100907.97;5029705;28;52577;-58
2021/04/08 11:04:33;;;;;;;4.10;1.97;;;8.00;68.60;;;4.42;100.00;100901.19;5020417;28;51337;-59
2021/04/08 11:07:46;;;;;;;5.73;1.97;;;7.80;73.10;;;4.06;100.00;100908.97;5010191;28;52537;-59
2021/04/08 11:14:51;;;;;;;6.37;1.93;;;7.40;78.30;;;5.17;100.00;100891.53;5034772;28;49416;-59
2021/04/08 11:18:10;;;;;;;3.03;1.80;;;7.70;78.80;;;6.24;100.00;100887.19;5035013;28;43598;-59
2021/04/08 11:21:52;;;;;;;4.33;1.90;;;8.20;78.40;;;7.12;100.00;100877.66;5043352;28;46884;-59
2021/04/08 11:25:06;;;;;;;7.00;2.00;;;9.20;76.70;;;6.36;100.00;100885.41;5029740;28;51815;-58
2021/04/08 11:28:20;;;;;;;4.23;1.50;;;10.00;66.80;;;6.35;100.00;100903.16;5039407;28;52331;-60
2021/04/08 11:31:39;;;;;;;2.73;1.30;;;10.10;62.20;;;6.68;100.00;100891.75;5041684;28;54299;-58
2021/04/08 11:38:53;;;;;;;4.97;1.83;;;10.70;56.30;;;6.06;100.00;100910.66;5025623;28;43686;-59
2021/04/08 11:42:06;;;;;;;4.80;1.50;;;10.60;55.30;;;5.16;100.00;100918.16;5039479;28;48971;-60
2021/04/08 11:45:38;;;;;;;4.00;1.70;;;10.20;56.20;;;4.29;100.00;100950.66;5039403;28;49452;-60
2021/04/08 11:49:04;;;;;;;7.30;2.03;;;9.50;60.00;;;3.78;100.00;100957.56;5038183;28;52302;-58
2021/04/08 11:52:22;;;;;;;5.20;2.00;;;8.70;69.00;;;3.13;100.00;100952.81;5039442;28;49339;-60
2021/04/08 11:55:42;;;;;;;6.13;1.70;;;8.10;74.80;;;3.04;100.00;100953.38;5040802;28;53299;-58
2021/04/08 11:58:56;;;;;;;7.40;2.27;;;7.40;81.30;;;2.95;100.00;100950.47;5033445;28;48283;-58
2021/04/08 12:02:09;;;;;;;3.33;1.57;;;6.90;84.80;;;3.23;100.00;100953.09;5038634;28;54589;-59
2021/04/08 12:05:21;;;;;;;6.33;1.80;;;6.60;89.00;;;3.43;100.00;100946.56;5031453;28;47479;-59
2021/04/08 12:08:39;;;;;;;6.60;2.40;;;6.50;90.50;;;3.69;100.00;100944.91;5041184;27;50749;-57
2021/04/08 12:12:04;;;;;;;4.70;1.90;;;6.50;91.00;;;3.95;100.00;100952.03;5036532;28;50840;-57
2021/04/08 12:15:25;;;;;;;3.40;1.83;;;6.60;90.30;;;4.66;100.00;100952.53;5044350;28;48650;-59
2021/04/08 12:18:43;;;;;;;5.23;1.40;;;6.80;88.30;;;5.30;100.00;100940.13;5043567;28;52526;-58
2021/04/08 12:22:05;;;;;;;3.47;1.20;;;7.30;85.90;;;6.08;100.00;100935.31;5023923;28;45990;-59
2021/04/08 12:25:32;;;;;;;4.83;1.20;;;8.10;81.40;;;6.28;100.00;100933.84;4998007;28;51552;-60
2021/04/08 12:28:44;;;;;;;3.57;1.43;;;9.10;75.80;;;6.46;100.00;100943.06;5043559;28;54774;-59
2021/04/08 12:31:56;;;;;;;4.17;1.27;;;9.90;68.20;;;6.35;100.00;100939.53;5026573;28;50446;-60
2021/04/08 12:35:07;;;;;;;4.00;1.13;;;10.40;61.60;;;6.59;100.00;100940.34;5033364;28;52827;-57
2021/04/08 12:38:19;;;;;;;6.60;1.93;;;10.80;58.50;;;6.13;100.00;100935.81;5040977;28;47474;-58
2021/04/08 12:41:30;;;;;;;6.77;2.00;;;10.90;55.30;;;6.10;100.00;100935.19;5008391;28;46912;-59
2021/04/08 12:44:41;;;;;;;4.60;1.57;;;10.70;54.30;;;6.06;100.00;100952.31;5036326;28;53805;-60
2021/04/08 12:47:54;;;;;;;5.80;2.00;;;10.60;54.50;;;5.81;100.00;100965.69;5029050;28;50432;-59
2021/04/08 12:51:07;;;;;;;2.70;1.43;;;10.50;56.20;;;4.90;100.00;100992.44;5033714;28;51898;-59
2021/04/08 12:54:18;;;;;;;5.43;2.00;;;10.20;57.90;;;4.50;100.00;100996.06;5038114;28;56455;-59
2021/04/08 12:57:30;;;;;;;2.33;1.50;;;9.70;60.00;;;5.00;100.00;100982.88;5042442;28;48785;-58
2021/04/08 13:00:42;;;;;;;2.33;1.53;;;9.50;62.00;;;4.88;100.00;100974.91;5033417;28;51912;-58
2021/04/08 13:03:54;;;;;;;1.47;1.20;;;9.40;61.80;;;5.05;100.00;100986.09;5045326;28;45981;-59
2021/04/08 13:07:06;;;;;;;4.27;1.20;;;9.30;60.50;;;5.11;100.00;100965.38;5038590;28;53593;-60
2021/04/08 13:10:17;;;;;;;3.30;1.43;;;9.40;59.00;;;5.64;100.00;100962.44;5037502;28;54026;-58
2021/04/08 13:13:29;;;;;;;2.03;0.93;;;9.50;58.30;;;6.51;100.00;100960.50;5033575;28;52839;-59
2021/04/08 13:16:41;;;;;;;4.27;1.53;;;9.90;57.90;;;5.98;100.00;100965.31;5005623;28;49331;-59
2021/04/08 13:19:56;;;;;;;4.90;1.50;;;10.20;55.90;;;5.60;100.00;100960.94;5037560;28;47785;-60
2021/04/08 13:23:13;;;;;;;6.37;1.70;;;10.20;55.30;;;5.39;100.00;100962.50;5041056;28;46651;-58
2021/04/08 13:26:24;;;;;;;3.43;2.03;;;9.90;55.20;;;5.37;100.00;100965.25;5038268;28;50665;-60
2021/04/08 13:29:35;;;;;;;4.23;2.10;;;9.50;57.00;;;5.62;100.00;100967.00;5041415;28;52394;-60
2021/04/08 13:32:46;;;;;;;4.40;2.10;;;9.30;58.50;;;5.75;100.00;100965.16;5039037;28;47684;-58
2021/04/08 13:35:59;;;;;;;4.60;2.03;;;9.20;59.80;;;5.93;100.00;100957.72;5044653;28;46451;-57
2021/04/08 13:39:10;;;;;;;5.97;2.23;;;9.10;60.50;;;6.71;100.00;100959.81;5039982;28;43255;-58
2021/04/08 13:42:22;;;;;;;4.37;1.50;;;9.40;62.90;;;6.24;100.00;100956.28;5046772;28;45151;-60
2021/04/08 13:45:33;;;;;;;2.60;1.70;;;9.80;59.70;;;6.19;100.00;100960.22;5039552;28;46115;-59
2021/04/08 13:48:45;;;;;;;5.07;1.53;;;9.90;58.50;;;6.27;100.00;100947.25;5036716;28;47323;-59
2021/04/08 13:51:57;;;;;;;4.57;1.40;;;10.00;58.20;;;6.60;100.00;100963.31;5042598;28;47813;-59
2021/04/08 13:55:08;;;;;;;2.47;1.17;;;10.20;58.00;;;5.98;100.00;100970.63;5042521;28;44715;-60
2021/04/08 13:58:20;;;;;;;3.80;1.33;;;10.10;55.60;;;6.00;100.00;100968.72;5041805;28;44736;-60
2021/04/08 14:01:31;;;;;;;4.57;1.67;;;9.90;56.20;;;6.04;100.00;100959.59;5044506;28;45514;-60
2021/04/08 14:05:00;;;;;;;3.70;1.60;;;9.80;56.40;;;6.29;100.00;100966.59;5040902;28;43403;-60
2021/04/08 14:08:15;;;;;;;4.10;1.50;;;9.80;56.70;;;6.30;100.00;100957.66;5027998;28;42997;-59
2021/04/08 14:11:26;;;;;;;4.17;1.90;;;9.80;56.30;;;6.78;100.00;100945.97;5038196;28;45830;-60
2021/04/08 14:14:37;;;;;;;2.57;1.20;;;9.90;56.90;;;7.08;100.00;100947.19;5041921;28;39366;-60
2021/04/08 14:17:49;;;;;;;3.53;1.80;;;10.20;56.00;;;6.91;100.00;100950.34;5036347;28;38489;-60
2021/04/08 14:21:00;;;;;;;3.67;1.33;;;10.60;54.60;;;6.55;100.00;100959.31;5038628;28;42640;-60
2021/04/08 14:24:12;;;;;;;3.03;1.30;;;10.70;53.50;;;6.18;100.00;100980.66;5039160;28;39298;-60
2021/04/08 14:27:24;;;;;;;4.03;1.20;;;10.60;53.80;;;5.96;100.00;100975.22;5046133;28;41872;-60
2021/04/08 14:30:43;;;;;;;2.20;1.20;;;10.30;54.60;;;5.74;100.00;100979.41;5043005;27;41063;-59
2021/04/08 14:33:54;;;;;;;3.03;1.40;;;10.00;55.40;;;5.64;100.00;100989.00;5037566;28;44029;-60
2021/04/08 14:37:05;;;;;;;3.30;1.30;;;9.70;55.50;;;5.77;100.00;100984.50;5044115;28;44248;-58
2021/04/08 14:40:18;;;;;;;2.63;1.10;;;9.50;56.10;;;5.71;100.00;100981.41;5046829;28;42757;-59
2021/04/08 14:43:30;;;;;;;3.40;1.30;;;9.30;54.30;;;6.16;100.00;100974.63;5047074;28;42228;-60
2021/04/08 14:46:42;;;;;;;4.17;1.40;;;9.20;54.50;;;5.86;100.00;100975.00;5018926;28;45544;-60
2021/04/08 14:49:53;;;;;;;2.93;1.20;;;9.20;54.50;;;5.70;100.00;100974.41;5043337;28;43429;-59
2021/04/08 14:53:04;;;;;;;2.80;1.10;;;9.20;54.30;;;5.84;100.00;100970.75;5042888;28;40494;-58
2021/04/08 14:56:17;;;;;;;2.37;1.40;;;9.10;54.40;;;5.70;100.00;100975.25;5036415;28;48881;-59
2021/04/08 14:59:28;;;;;;;4.77;1.80;;;8.90;54.30;;;5.71;100.00;100976.09;5042261;28;45478;-59
2021/04/08 15:02:41;;;;;;;4.30;1.57;;;8.70;54.90;;;5.78;100.00;100980.88;5047191;28;41179;-58
2021/04/08 15:06:04;;;;;;;4.10;1.20;;;8.60;56.10;;;5.81;100.00;100976.31;5042015;28;39674;-59
2021/04/08 15:09:15;;;;;;;3.70;1.40;;;8.60;57.10;;;5.75;100.00;100977.59;5025984;28;38360;-60
2021/04/08 15:12:28;;;;;;;4.90;1.77;;;8.60;57.50;;;5.87;100.00;100976.72;5041317;28;42169;-60
2021/04/08 15:19:07;;;;;;;3.57;1.50;;;8.60;57.90;;;5.80;100.00;100969.31;5024327;28;45760;-59
2021/04/08 15:22:18;;;;;;;3.87;1.50;;;8.70;58.30;;;5.69;100.00;100970.06;5043196;28;43762;-59
2021/04/08 15:25:32;;;;;;;6.07;2.00;;;8.70;58.30;;;5.71;100.00;100976.09;5045129;28;37977;-59
2021/04/08 15:28:44;;;;;;;3.90;1.97;;;8.70;58.20;;;5.67;100.00;100974.66;5044566;28;44743;-59
2021/04/08 15:31:56;;;;;;;2.40;1.90;;;8.70;58.60;;;5.55;100.00;100970.22;5045183;28;40612;-60
2021/04/08 15:35:07;;;;;;;4.00;2.17;;;8.60;59.00;;;5.49;100.00;100975.94;5041552;28;48187;-60
2021/04/08 15:38:18;;;;;;;3.83;1.70;;;8.40;59.00;;;5.51;100.00;100977.53;5036717;28;46702;-59
2021/04/08 15:41:30;;;;;;;3.93;1.87;;;8.30;59.00;;;5.48;100.00;100980.41;5043343;28;48218;-60
2021/04/08 15:44:42;;;;;;;2.83;1.67;;;8.20;59.50;;;5.61;100.00;100980.38;5039258;28;48250;-59
2021/04/08 15:47:53;;;;;;;3.83;2.03;;;8.10;60.20;;;5.51;100.00;100979.34;5037745;28;51976;-59
2021/04/08 15:51:05;;;;;;;6.83;2.10;;;8.10;60.60;;;5.45;100.00;100977.97;5042561;28;51103;-60
2021/04/08 15:54:16;;;;;;;3.20;1.63;;;8.10;60.70;;;5.40;100.00;100980.13;5035158;28;54833;-60
2021/04/08 15:57:29;;;;;;;7.00;1.97;;;8.00;61.60;;;5.42;100.00;100978.19;5043029;28;47952;-60
2021/04/08 16:00:43;;;;;;;3.33;1.53;;;8.00;62.40;;;5.60;100.00;100976.03;5040030;28;49007;-60
2021/04/08 16:03:55;;;;;;;4.13;2.07;;;7.90;62.90;;;5.52;100.00;100981.06;5039585;28;48394;-59